createdAt,value
2023-01-19T00:01:24.459Z,61.80
2023-01-19T00:03:52.113Z,58.20
2023-01-19T00:06:19.785Z,42.70
2023-01-19T00:08:49.831Z,53.30
2023-01-19T00:11:20.459Z,64.30
2023-01-19T00:13:51.153Z,66.10
2023-01-19T00:16:19.108Z,66.00
2023-01-19T00:18:46.849Z,58.00
2023-01-19T00:21:14.959Z,47.70
2023-01-19T00:23:42.872Z,45.80
2023-01-19T00:26:10.944Z,42.50
2023-01-19T00:28:38.576Z,49.90
2023-01-19T00:31:06.266Z,48.80
2023-01-19T00:33:33.860Z,45.80
2023-01-19T00:36:01.559Z,48.70
2023-01-19T00:38:29.188Z,47.10
2023-01-19T00:40:56.866Z,51.60
2023-01-19T00:43:24.474Z,46.10
2023-01-19T00:45:52.917Z,44.10
2023-01-19T00:48:20.640Z,43.50
2023-01-19T00:50:49.201Z,40.10
2023-01-19T00:53:16.847Z,38.80
2023-01-19T00:55:44.543Z,37.10
2023-01-19T00:58:12.237Z,33.60
2023-01-19T01:00:39.874Z,32.20
2023-01-19T01:03:07.612Z,41.00
2023-01-19T01:05:35.565Z,45.50
2023-01-19T01:08:03.224Z,58.10
2023-01-19T01:10:31.116Z,57.70
2023-01-19T01:12:59.027Z,52.90
2023-01-19T01:15:27.126Z,48.50
2023-01-19T01:17:54.771Z,53.40
2023-01-19T01:20:22.445Z,40.30
2023-01-19T01:22:50.112Z,44.60
2023-01-19T01:25:17.716Z,110.20
2023-01-19T01:27:45.363Z,122.40
2023-01-19T01:30:13.043Z,49.10
2023-01-19T01:32:40.684Z,40.20
2023-01-19T01:35:09.235Z,49.20
2023-01-19T01:37:36.888Z,38.10
2023-01-19T01:40:04.559Z,42.00
2023-01-19T01:42:32.230Z,39.00
2023-01-19T01:45:00.987Z,40.90
2023-01-19T01:47:28.641Z,45.80
2023-01-19T01:49:56.216Z,72.10
2023-01-19T01:52:24.075Z,56.60
2023-01-19T01:54:52.941Z,44.10
2023-01-19T01:57:20.633Z,40.40
2023-01-19T01:59:48.266Z,37.80
2023-01-19T02:02:34.965Z,38.90
2023-01-19T02:05:04.283Z,34.40
2023-01-19T02:07:50.818Z,38.10
2023-01-19T02:10:37.095Z,36.80
2023-01-19T02:13:20.762Z,33.20
2023-01-19T02:15:48.458Z,36.20
2023-01-19T02:18:16.069Z,33.40
2023-01-19T02:20:43.813Z,39.20
2023-01-19T02:23:11.508Z,39.90
2023-01-19T02:25:40.724Z,40.40
2023-01-19T02:28:08.355Z,36.00
2023-01-19T02:30:36.008Z,37.90
2023-01-19T02:33:03.860Z,32.70
2023-01-19T02:35:31.565Z,38.00
2023-01-19T02:37:59.176Z,37.50
2023-01-19T02:40:26.816Z,31.30
2023-01-19T02:42:54.434Z,33.20
2023-01-19T02:45:22.081Z,32.50
2023-01-19T02:47:49.715Z,30.70
2023-01-19T02:50:17.545Z,31.70
2023-01-19T02:52:46.224Z,34.10
2023-01-19T02:55:13.862Z,31.60
2023-01-19T02:57:43.804Z,31.20
2023-01-19T03:00:11.421Z,30.80
2023-01-19T03:02:39.073Z,31.70
2023-01-19T03:05:06.768Z,26.30
2023-01-19T03:07:34.382Z,28.10
2023-01-19T03:10:02.018Z,24.40
2023-01-19T03:12:29.659Z,27.40
2023-01-19T03:14:57.275Z,25.10
2023-01-19T03:17:24.955Z,26.30
2023-01-19T03:19:52.952Z,19.80
2023-01-19T03:22:20.565Z,23.90
2023-01-19T03:24:48.209Z,18.70
2023-01-19T03:27:15.862Z,20.10
2023-01-19T03:29:43.531Z,15.80
2023-01-19T03:32:11.156Z,15.10
2023-01-19T03:34:38.761Z,15.20
2023-01-19T03:37:06.427Z,13.60
2023-01-19T03:39:34.072Z,15.30
2023-01-19T03:42:02.439Z,13.80
2023-01-19T03:44:30.078Z,17.00
2023-01-19T03:46:57.775Z,17.20
2023-01-19T03:49:25.421Z,18.80
2023-01-19T03:51:53.072Z,25.60
2023-01-19T03:54:20.715Z,27.40
2023-01-19T03:56:48.324Z,27.20
2023-01-19T03:59:17.693Z,29.00
2023-01-19T04:01:45.448Z,35.40
2023-01-19T04:04:15.937Z,40.10
2023-01-19T04:06:43.872Z,40.20
2023-01-19T04:09:11.502Z,32.10
2023-01-19T04:11:39.120Z,27.10
2023-01-19T04:14:06.816Z,31.80
2023-01-19T04:16:34.436Z,44.30
2023-01-19T04:19:02.064Z,31.10
2023-01-19T04:21:29.678Z,25.30
2023-01-19T04:23:57.411Z,27.20
2023-01-19T04:26:25.089Z,24.50
2023-01-19T04:28:52.767Z,25.00
2023-01-19T04:31:20.641Z,27.80
2023-01-19T04:33:48.441Z,26.50
2023-01-19T04:36:16.072Z,23.90
2023-01-19T04:38:43.711Z,22.90
2023-01-19T04:41:11.305Z,23.40
2023-01-19T04:43:38.927Z,20.30
2023-01-19T04:46:06.980Z,22.80
2023-01-19T04:48:34.611Z,39.70
2023-01-19T04:51:02.286Z,40.40
2023-01-19T04:53:29.979Z,32.10
2023-01-19T04:55:57.714Z,28.50
2023-01-19T04:58:25.340Z,30.60
2023-01-19T05:00:53.361Z,28.40
2023-01-19T05:03:21.035Z,36.40
2023-01-19T05:05:48.717Z,37.80
2023-01-19T05:08:16.409Z,33.00
2023-01-19T05:10:44.075Z,34.30
2023-01-19T05:13:11.680Z,27.90
2023-01-19T05:15:39.291Z,30.90
2023-01-19T05:18:06.903Z,29.30
2023-01-19T05:20:34.539Z,32.10
2023-01-19T05:23:02.551Z,29.00
2023-01-19T05:25:30.560Z,28.10
2023-01-19T05:27:58.206Z,29.80
2023-01-19T05:30:25.838Z,26.10
2023-01-19T05:32:53.471Z,26.80
2023-01-19T05:35:31.251Z,34.70
2023-01-19T05:40:30.757Z,27.00
2023-01-19T05:43:01.512Z,25.40
2023-01-19T05:45:29.397Z,23.20
2023-01-19T05:47:57.025Z,20.00
2023-01-19T05:50:25.502Z,21.40
2023-01-19T05:52:53.594Z,19.00
2023-01-19T05:55:21.220Z,23.30
2023-01-19T05:57:48.849Z,22.40
2023-01-19T06:00:16.588Z,26.60
2023-01-19T06:02:44.275Z,22.60
2023-01-19T06:05:12.077Z,28.00
2023-01-19T06:07:39.701Z,49.10
2023-01-19T06:10:07.351Z,38.20
2023-01-19T06:12:34.987Z,35.00
2023-01-19T06:15:02.600Z,30.20
2023-01-19T06:17:30.229Z,30.50
2023-01-19T06:19:58.071Z,26.30
2023-01-19T06:22:25.676Z,27.70
2023-01-19T06:24:53.359Z,26.30
2023-01-19T06:27:20.971Z,47.70
2023-01-19T06:29:48.675Z,63.30
2023-01-19T06:32:16.373Z,61.50
2023-01-19T06:34:44.098Z,59.80
2023-01-19T06:37:11.833Z,51.90
2023-01-19T06:39:41.246Z,42.60
2023-01-19T06:42:08.875Z,41.20
2023-01-19T06:44:36.517Z,35.90
2023-01-19T06:47:15.494Z,34.50
2023-01-19T06:49:43.958Z,43.60
2023-01-19T06:52:11.632Z,50.90
2023-01-19T06:54:39.229Z,37.50
2023-01-19T06:57:06.854Z,27.40
2023-01-19T06:59:34.513Z,29.50
2023-01-19T07:02:27.715Z,33.50
2023-01-19T07:04:49.861Z,30.40
2023-01-19T07:07:17.552Z,32.50
2023-01-19T07:09:45.171Z,35.60
2023-01-19T07:12:12.802Z,29.60
2023-01-19T07:14:41.268Z,36.50
2023-01-19T07:17:09.011Z,40.20
2023-01-19T07:19:36.903Z,42.80
2023-01-19T07:22:04.570Z,37.90
2023-01-19T07:24:33.811Z,44.50
2023-01-19T07:27:01.427Z,33.90
2023-01-19T07:29:29.136Z,42.90
2023-01-19T07:31:57.051Z,42.10
2023-01-19T07:34:24.664Z,40.50
2023-01-19T07:36:52.297Z,39.20
2023-01-19T07:39:20.267Z,43.30
2023-01-19T07:41:47.930Z,37.50
2023-01-19T07:44:15.554Z,31.00
2023-01-19T07:46:43.567Z,32.60
2023-01-19T07:49:11.802Z,31.90
2023-01-19T07:51:39.506Z,35.30
2023-01-19T07:54:08.629Z,46.30
2023-01-19T07:56:36.236Z,35.20
2023-01-19T07:59:03.864Z,32.20
2023-01-19T08:01:31.760Z,30.30
2023-01-19T08:03:59.476Z,39.20
2023-01-19T08:06:27.102Z,33.20
2023-01-19T08:08:54.719Z,40.20
2023-01-19T08:11:22.341Z,40.90
2023-01-19T08:13:50.024Z,29.10
2023-01-19T08:16:17.681Z,35.20
2023-01-19T08:18:45.350Z,29.40
2023-01-19T08:21:13.026Z,33.10
2023-01-19T08:23:40.701Z,27.20
2023-01-19T08:26:08.378Z,28.70
2023-01-19T08:28:35.982Z,24.60
2023-01-19T08:31:18.689Z,31.10
2023-01-19T08:33:48.001Z,28.70
2023-01-19T08:36:15.677Z,32.60
2023-01-19T08:38:45.153Z,29.40
2023-01-19T08:41:14.276Z,27.70
2023-01-19T08:43:41.872Z,27.30
2023-01-19T08:46:09.582Z,32.10
2023-01-19T08:48:39.713Z,45.50
2023-01-19T08:51:07.603Z,47.40
2023-01-19T08:53:35.262Z,43.60
2023-01-19T08:56:03.622Z,48.50
2023-01-19T08:58:31.236Z,42.20
2023-01-19T09:00:58.887Z,50.30
2023-01-19T09:03:26.553Z,42.60
2023-01-19T09:05:54.228Z,42.70
2023-01-19T09:08:21.844Z,50.10
2023-01-19T09:10:49.486Z,48.00
2023-01-19T09:13:17.177Z,51.70
2023-01-19T09:15:44.917Z,42.80
2023-01-19T09:18:13.838Z,39.10
2023-01-19T09:20:42.810Z,36.80
2023-01-19T09:23:13.343Z,37.70
2023-01-19T09:25:41.118Z,34.60
2023-01-19T09:28:09.472Z,34.10
2023-01-19T09:30:37.694Z,43.90
2023-01-19T09:33:06.546Z,38.10
2023-01-19T09:35:34.219Z,35.30
2023-01-19T09:38:02.219Z,35.50
2023-01-19T09:40:30.131Z,31.80
2023-01-19T09:42:59.429Z,35.10
2023-01-19T09:45:27.102Z,43.30
2023-01-19T09:47:54.768Z,39.30
2023-01-19T09:50:22.394Z,41.40
2023-01-19T09:52:50.174Z,44.00
2023-01-19T09:55:17.773Z,42.80
2023-01-19T09:57:45.490Z,41.60
2023-01-19T10:00:13.120Z,49.70
2023-01-19T10:02:40.866Z,43.10
2023-01-19T10:05:08.742Z,43.20
2023-01-19T10:07:36.389Z,38.70
2023-01-19T10:10:04.010Z,37.00
2023-01-19T10:12:31.669Z,30.20
2023-01-19T10:14:59.482Z,38.50
2023-01-19T10:17:27.130Z,35.00
2023-01-19T10:19:54.798Z,38.60
2023-01-19T10:22:22.490Z,33.10
2023-01-19T10:24:50.128Z,39.40
2023-01-19T10:27:20.945Z,40.80
2023-01-19T10:29:48.602Z,31.90
2023-01-19T10:32:17.495Z,34.10
2023-01-19T10:34:45.102Z,27.50
2023-01-19T10:37:12.752Z,24.20
2023-01-19T10:39:40.356Z,38.60
2023-01-19T10:42:07.970Z,49.90
2023-01-19T10:44:35.591Z,41.20
2023-01-19T10:47:03.320Z,45.30
2023-01-19T10:49:31.706Z,37.50
2023-01-19T10:51:59.374Z,35.40
2023-01-19T10:54:26.955Z,37.70
2023-01-19T10:56:54.732Z,38.70
2023-01-19T10:59:22.376Z,47.20
2023-01-19T11:01:50.208Z,49.00
2023-01-19T11:04:17.972Z,37.20
2023-01-19T11:06:45.576Z,48.70
2023-01-19T11:09:13.283Z,27.80
2023-01-19T11:11:40.896Z,24.50
2023-01-19T11:14:08.616Z,46.80
2023-01-19T11:16:38.311Z,39.90
2023-01-19T11:19:05.925Z,39.40
2023-01-19T11:21:33.617Z,35.90
2023-01-19T11:24:01.259Z,28.00
2023-01-19T11:26:29.192Z,44.80
2023-01-19T11:28:56.854Z,53.60
2023-01-19T11:31:24.593Z,46.70
2023-01-19T11:33:52.419Z,48.10
2023-01-19T11:36:21.346Z,45.60
2023-01-19T11:38:50.608Z,47.90
2023-01-19T11:41:18.353Z,43.10
2023-01-19T11:43:49.371Z,43.70
2023-01-19T11:46:17.339Z,54.00
2023-01-19T11:48:44.956Z,45.70
2023-01-19T11:51:12.547Z,43.40
2023-01-19T11:53:40.207Z,41.00
2023-01-19T11:56:07.867Z,38.70
2023-01-19T11:58:35.482Z,37.60
2023-01-19T12:01:03.152Z,38.80
2023-01-19T12:03:30.945Z,40.80
2023-01-19T12:05:58.609Z,50.40
2023-01-19T12:08:27.133Z,32.30
2023-01-19T12:10:54.756Z,44.00
2023-01-19T12:13:22.437Z,53.90
2023-01-19T12:15:50.486Z,52.20
2023-01-19T12:18:18.308Z,50.40
2023-01-19T12:20:45.951Z,40.40
2023-01-19T12:23:13.642Z,46.70
2023-01-19T12:25:41.403Z,33.90
2023-01-19T12:28:09.055Z,38.40
2023-01-19T12:30:36.808Z,33.70
2023-01-19T12:33:04.556Z,33.50
2023-01-19T12:35:32.175Z,36.90
2023-01-19T12:37:59.781Z,33.70
2023-01-19T12:40:27.491Z,32.30
2023-01-19T12:42:55.183Z,28.80
2023-01-19T12:45:23.601Z,43.00
2023-01-19T12:47:53.065Z,37.10
2023-01-19T12:50:21.339Z,40.50
2023-01-19T12:52:51.754Z,26.20
2023-01-19T12:55:19.463Z,24.80
2023-01-19T12:57:47.070Z,27.90
2023-01-19T13:00:16.917Z,37.30
2023-01-19T13:02:44.734Z,140.20
2023-01-19T13:05:12.606Z,54.60
2023-01-19T13:07:40.220Z,58.60
2023-01-19T13:10:07.845Z,53.30
2023-01-19T13:12:35.487Z,51.00
2023-01-19T13:15:03.099Z,39.60
2023-01-19T13:17:30.714Z,36.10
2023-01-19T13:19:58.543Z,31.40
2023-01-19T13:22:26.219Z,38.90
2023-01-19T13:24:53.871Z,27.70
2023-01-19T13:27:21.480Z,23.00
2023-01-19T13:29:49.101Z,37.60
2023-01-19T13:32:17.761Z,46.30
2023-01-19T13:34:45.433Z,54.00
2023-01-19T13:37:13.076Z,48.20
2023-01-19T13:39:40.699Z,38.30
2023-01-19T13:42:08.801Z,39.90
2023-01-19T13:44:36.489Z,30.10
2023-01-19T13:47:04.119Z,20.40
2023-01-19T13:49:31.810Z,25.00
2023-01-19T13:51:59.421Z,41.30
2023-01-19T13:54:27.097Z,35.70
2023-01-19T13:56:55.294Z,41.20
2023-01-19T13:59:23.024Z,35.90
2023-01-19T14:01:51.688Z,37.80
2023-01-19T14:04:20.013Z,42.30
2023-01-19T14:06:49.712Z,53.40
2023-01-19T14:09:17.528Z,54.50
2023-01-19T14:11:45.224Z,32.10
2023-01-19T14:14:12.861Z,43.40
2023-01-19T14:16:40.483Z,39.80
2023-01-19T14:19:08.439Z,151.40
2023-01-19T14:21:36.114Z,79.50
2023-01-19T14:24:03.738Z,66.10
2023-01-19T14:26:31.380Z,34.00
2023-01-19T14:28:59.005Z,57.60
2023-01-19T14:31:28.223Z,187.60
2023-01-19T14:33:55.892Z,152.30
2023-01-19T14:36:23.532Z,92.90
2023-01-19T14:38:51.161Z,117.90
2023-01-19T14:41:18.778Z,122.50
2023-01-19T14:43:46.429Z,62.50
2023-01-19T14:46:14.072Z,54.50
2023-01-19T14:48:41.665Z,36.10
2023-01-19T14:51:09.332Z,65.80
2023-01-19T14:53:37.042Z,34.90
2023-01-19T14:56:04.777Z,29.90
2023-01-19T14:58:32.700Z,24.50
2023-01-19T15:01:00.412Z,52.60
2023-01-19T15:03:43.446Z,60.60
2023-01-19T15:06:12.941Z,31.90
2023-01-19T15:08:40.570Z,46.50
2023-01-19T15:11:08.191Z,43.40
2023-01-19T15:13:35.829Z,40.90
2023-01-19T15:16:04.015Z,43.80
2023-01-19T15:18:31.661Z,41.20
2023-01-19T15:21:03.090Z,53.60
2023-01-19T15:23:30.857Z,32.80
2023-01-19T15:25:58.556Z,39.80
2023-01-19T15:28:26.198Z,47.40
2023-01-19T15:30:57.917Z,89.00
2023-01-19T15:35:53.338Z,109.00
2023-01-19T15:38:21.092Z,103.90
2023-01-19T15:40:51.448Z,76.60
2023-01-19T15:43:21.196Z,103.00
2023-01-19T15:45:48.878Z,75.60
2023-01-19T15:48:16.528Z,111.30
2023-01-19T15:50:44.162Z,59.00
2023-01-19T15:53:11.812Z,72.20
2023-01-19T15:55:39.468Z,81.00
2023-01-19T15:58:07.148Z,63.70
2023-01-19T16:00:34.942Z,68.50
2023-01-19T16:03:02.555Z,64.20
2023-01-19T16:05:41.908Z,79.90
2023-01-19T16:08:10.039Z,61.60
2023-01-19T16:10:37.628Z,61.70
2023-01-19T16:13:05.364Z,51.00
2023-01-19T16:15:33.011Z,61.10
2023-01-19T16:18:00.649Z,70.60
2023-01-19T16:20:28.282Z,60.30
2023-01-19T16:23:00.720Z,65.20
2023-01-19T16:25:33.936Z,56.20
2023-01-19T16:28:01.611Z,58.40
2023-01-19T16:30:29.304Z,63.60
2023-01-19T16:32:56.992Z,64.80
2023-01-19T16:35:24.605Z,65.60
2023-01-19T16:37:52.268Z,60.70
2023-01-19T16:40:20.544Z,69.00
2023-01-19T16:42:48.199Z,54.60
2023-01-19T16:45:15.921Z,136.20
2023-01-19T16:47:45.563Z,99.30
2023-01-19T16:50:13.461Z,68.70
2023-01-19T16:52:42.286Z,72.70
2023-01-19T16:55:14.701Z,69.60
2023-01-19T16:57:42.332Z,63.80
2023-01-19T17:00:10.688Z,82.00
2023-01-19T17:02:38.577Z,151.40
2023-01-19T17:05:06.275Z,63.50
2023-01-19T17:07:33.928Z,77.90
2023-01-19T17:10:01.700Z,77.60
2023-01-19T17:12:32.086Z,123.10
2023-01-19T17:14:59.989Z,100.40
2023-01-19T17:17:27.674Z,72.80
2023-01-19T17:19:55.316Z,71.50
2023-01-19T17:22:22.941Z,85.20
2023-01-19T17:24:50.591Z,102.80
2023-01-19T17:27:18.225Z,87.50
2023-01-19T17:29:45.846Z,86.20
2023-01-19T17:32:13.532Z,51.30
2023-01-19T17:34:41.186Z,67.20
2023-01-19T17:37:08.791Z,56.00
2023-01-19T17:39:36.432Z,59.70
2023-01-19T17:42:04.116Z,78.10
2023-01-19T17:44:31.730Z,68.10
2023-01-19T17:47:00.068Z,55.60
2023-01-19T17:49:27.858Z,50.70
2023-01-19T17:51:55.949Z,60.50
2023-01-19T17:54:23.685Z,60.50
2023-01-19T17:56:51.369Z,54.30
2023-01-19T17:59:19.018Z,41.60
2023-01-19T18:01:46.869Z,59.00
2023-01-19T18:04:14.562Z,56.20
2023-01-19T18:06:42.197Z,46.20
2023-01-19T18:09:09.797Z,46.30
2023-01-19T18:11:37.492Z,47.40
2023-01-19T18:14:06.135Z,47.10
2023-01-19T18:16:33.987Z,44.50
2023-01-19T18:19:01.614Z,53.50
2023-01-19T18:21:30.591Z,51.70
2023-01-19T18:23:58.373Z,51.00
2023-01-19T18:26:25.966Z,51.00
2023-01-19T18:28:53.565Z,42.30
2023-01-19T18:31:21.208Z,49.70
2023-01-19T18:33:48.874Z,52.60
2023-01-19T18:36:16.515Z,53.80
2023-01-19T18:38:44.140Z,49.40
2023-01-19T18:41:11.767Z,50.00
2023-01-19T18:43:39.431Z,38.90
2023-01-19T18:46:07.223Z,38.00
2023-01-19T18:48:35.059Z,41.80
2023-01-19T18:51:03.584Z,47.90
2023-01-19T18:53:31.222Z,50.90
2023-01-19T18:55:58.830Z,41.90
2023-01-19T18:58:29.580Z,40.40
2023-01-19T19:00:57.276Z,34.30
2023-01-19T19:03:24.935Z,45.10
2023-01-19T19:05:52.627Z,46.00
2023-01-19T19:08:20.295Z,41.90
2023-01-19T19:10:47.978Z,48.60
2023-01-19T19:13:15.609Z,40.00
2023-01-19T19:15:44.594Z,42.90
2023-01-19T19:18:14.243Z,39.00
2023-01-19T19:20:45.046Z,55.10
2023-01-19T19:23:12.760Z,52.30
2023-01-19T19:25:40.593Z,40.70
2023-01-19T19:28:08.697Z,35.90
2023-01-19T19:30:38.001Z,43.80
2023-01-19T19:33:05.763Z,42.90
2023-01-19T19:35:33.371Z,45.90
2023-01-19T19:38:00.990Z,41.20
2023-01-19T19:40:28.647Z,33.20
2023-01-19T19:42:58.697Z,44.10
2023-01-19T19:45:27.111Z,32.90
2023-01-19T19:47:54.796Z,45.30
2023-01-19T19:50:22.403Z,43.00
2023-01-19T19:52:50.037Z,42.90
2023-01-19T19:55:17.691Z,38.50
2023-01-19T19:57:45.740Z,39.00
2023-01-19T20:00:13.529Z,40.30
2023-01-19T20:02:41.358Z,31.80
2023-01-19T20:05:09.080Z,38.20
2023-01-19T20:07:37.188Z,46.50
2023-01-19T20:10:04.794Z,47.00
2023-01-19T20:12:32.443Z,34.90
2023-01-19T20:15:00.067Z,36.00
2023-01-19T20:17:27.706Z,38.80
2023-01-19T20:19:55.321Z,34.30
2023-01-19T20:22:23.012Z,39.60
2023-01-19T20:24:51.624Z,37.90
2023-01-19T20:27:19.297Z,35.80
2023-01-19T20:29:51.475Z,31.40
2023-01-19T20:32:19.462Z,33.10
2023-01-19T20:34:47.096Z,33.30
2023-01-19T20:37:14.696Z,47.60
2023-01-19T20:39:42.837Z,81.10
2023-01-19T20:42:11.722Z,48.60
2023-01-19T20:44:39.323Z,51.80
2023-01-19T20:47:07.083Z,66.50
2023-01-19T20:49:34.762Z,43.90
2023-01-19T20:52:02.413Z,41.20
2023-01-19T20:54:30.669Z,37.70
2023-01-19T20:56:58.369Z,44.50
2023-01-19T20:59:26.016Z,42.80
2023-01-19T21:01:53.772Z,45.00
2023-01-19T21:04:22.503Z,50.50
2023-01-19T21:06:50.132Z,47.80
2023-01-19T21:09:18.758Z,51.80
2023-01-19T21:11:46.408Z,63.80
2023-01-19T21:14:14.088Z,57.20
2023-01-19T21:16:42.772Z,43.60
2023-01-19T21:19:10.533Z,54.60
2023-01-19T21:21:38.155Z,53.10
2023-01-19T21:24:05.787Z,50.00
2023-01-19T21:26:33.742Z,47.40
2023-01-19T21:29:01.546Z,48.20
2023-01-19T21:31:29.255Z,42.10
2023-01-19T21:33:57.147Z,53.60
2023-01-19T21:36:24.884Z,55.10
2023-01-19T21:38:52.660Z,61.80
2023-01-19T21:41:20.471Z,52.30
2023-01-19T21:43:48.075Z,51.30
2023-01-19T21:46:15.777Z,46.80
2023-01-19T21:48:44.628Z,52.00
2023-01-19T21:51:12.255Z,53.30
2023-01-19T21:53:39.874Z,51.40
2023-01-19T21:56:07.821Z,48.10
2023-01-19T21:58:35.455Z,47.20
2023-01-19T22:01:03.179Z,49.50
2023-01-19T22:03:31.011Z,45.00
2023-01-19T22:05:58.650Z,44.60
2023-01-19T22:08:26.304Z,48.10
2023-01-19T22:10:54.996Z,52.50
2023-01-19T22:13:22.677Z,51.30
2023-01-19T22:15:50.295Z,44.40
2023-01-19T22:18:17.966Z,44.60
2023-01-19T22:20:45.578Z,44.90
2023-01-19T22:23:13.188Z,32.60
2023-01-19T22:25:40.864Z,38.90
2023-01-19T22:28:08.476Z,51.30
2023-01-19T22:30:36.218Z,40.10
2023-01-19T22:33:03.958Z,46.40
2023-01-19T22:35:31.607Z,44.80
2023-01-19T22:37:59.230Z,48.00
2023-01-19T22:40:26.896Z,40.40
2023-01-19T22:42:54.519Z,49.50
2023-01-19T22:45:22.171Z,50.90
2023-01-19T22:47:49.861Z,51.00
2023-01-19T22:50:17.469Z,45.70
2023-01-19T22:52:45.076Z,39.50
2023-01-19T22:55:13.167Z,39.30
2023-01-19T22:57:41.041Z,36.70
2023-01-19T23:00:09.177Z,46.70
2023-01-19T23:02:36.835Z,47.80
2023-01-19T23:05:04.440Z,43.60
2023-01-19T23:07:32.084Z,38.20
2023-01-19T23:09:59.718Z,38.20
2023-01-19T23:12:27.368Z,40.20
2023-01-19T23:14:54.991Z,44.10
2023-01-19T23:17:22.602Z,57.20
2023-01-19T23:19:50.207Z,47.40
2023-01-19T23:22:17.920Z,46.80
2023-01-19T23:24:45.581Z,47.20
2023-01-19T23:27:13.242Z,43.50
2023-01-19T23:29:40.887Z,33.70
2023-01-19T23:32:08.540Z,40.90
2023-01-19T23:34:36.176Z,47.70
2023-01-19T23:37:03.836Z,47.50
2023-01-19T23:39:31.467Z,41.30
2023-01-19T23:41:59.225Z,39.30
2023-01-19T23:44:26.826Z,46.20
2023-01-19T23:46:54.454Z,39.80
2023-01-19T23:49:22.171Z,40.50
2023-01-19T23:51:49.841Z,48.60
2023-01-19T23:54:17.528Z,42.40
2023-01-19T23:56:45.199Z,39.90
2023-01-19T23:59:12.889Z,43.20
